Time;durP1;ratioP1;P1;durP2;ratioP2;P2;SDS_P1;SDS_P2;PMS_P1;PMS_P2;Temp;Humidity;BMP_temperature;BMP_pressure;BME280_temperature;BME280_humidity;BME280_pressure;Samples;Min_cycle;Max_cycle;Signal;HPM_P1;HPM_P2
2023/11/14 00:01:43;;;;;;;4.97;1.20;;;12.40;23.20;;;;;;4992876;28;20180;-73
2023/11/14 00:04:09;;;;;;;2.83;1.40;;;12.30;24.20;;;;;;4993089;28;20176;-71
2023/11/14 00:06:34;;;;;;;8.57;1.63;;;12.20;24.10;;;;;;4993073;28;20696;-71
2023/11/14 00:09:00;;;;;;;2.53;0.97;;;12.00;26.90;;;;;;4992878;28;20183;-72
2023/11/14 00:11:28;;;;;;;4.90;1.60;;;11.80;28.30;;;;;;4993694;28;20606;-71
2023/11/14 00:13:54;;;;;;;8.50;1.23;;;11.70;30.30;;;;;;4992706;28;20658;-72
2023/11/14 00:16:20;;;;;;;2.40;1.37;;;11.70;31.60;;;;;;4992951;28;20481;-71
2023/11/14 00:18:45;;;;;;;6.60;1.63;;;11.70;32.40;;;;;;4992926;28;20830;-72
2023/11/14 00:21:18;;;;;;;4.60;1.80;;;11.70;33.10;;;;;;4992870;28;20172;-72
2023/11/14 00:23:43;;;;;;;3.70;1.60;;;11.60;33.20;;;;;;4992765;28;20673;-72
2023/11/14 00:26:09;;;;;;;2.83;1.23;;;11.60;33.70;;;;;;4992942;28;20452;-73
2023/11/14 00:28:35;;;;;;;3.07;1.17;;;11.70;33.10;;;;;;4991439;28;20177;-72
2023/11/14 00:31:00;;;;;;;3.50;1.00;;;11.70;32.40;;;;;;4993076;28;20179;-72
2023/11/14 00:33:26;;;;;;;3.53;1.17;;;11.60;33.70;;;;;;4992434;28;20239;-72
2023/11/14 00:35:51;;;;;;;3.37;1.03;;;11.60;34.00;;;;;;4992797;28;20181;-73
2023/11/14 00:38:18;;;;;;;3.37;1.60;;;11.60;34.00;;;;;;4992887;28;20203;-72
2023/11/14 00:40:43;;;;;;;4.83;1.40;;;11.50;34.20;;;;;;4992586;28;20181;-72
2023/11/14 00:43:09;;;;;;;3.20;1.43;;;11.50;35.30;;;;;;4992256;28;20442;-72
2023/11/14 00:45:35;;;;;;;3.47;1.23;;;11.60;35.80;;;;;;4992803;28;20679;-72
2023/11/14 00:48:00;;;;;;;2.37;1.10;;;11.60;33.80;;;;;;4992544;28;20672;-72
2023/11/14 00:50:26;;;;;;;2.40;1.27;;;11.60;34.70;;;;;;4992453;28;20252;-71
2023/11/14 00:52:51;;;;;;;4.40;1.90;;;11.60;34.50;;;;;;4992194;28;20196;-72
2023/11/14 00:55:17;;;;;;;2.93;1.53;;;11.60;34.20;;;;;;4992564;28;20731;-72
2023/11/14 00:57:42;;;;;;;3.40;2.17;;;11.70;35.40;;;;;;4992287;28;20664;-73
2023/11/14 01:00:10;;;;;;;3.50;1.40;;;11.60;35.70;;;;;;4992700;28;20598;-71
2023/11/14 01:02:36;;;;;;;2.83;1.47;;;11.60;35.90;;;;;;4992551;28;20603;-73
2023/11/14 01:05:01;;;;;;;4.17;1.97;;;11.70;36.80;;;;;;4992779;28;20441;-72
2023/11/14 01:07:27;;;;;;;3.40;1.93;;;11.60;37.60;;;;;;4992708;28;20577;-72
2023/11/14 01:09:52;;;;;;;2.43;1.20;;;11.70;37.70;;;;;;4992319;28;20174;-71
2023/11/14 01:12:18;;;;;;;4.90;1.60;;;11.80;36.00;;;;;;4992222;28;20632;-72
2023/11/14 01:14:45;;;;;;;4.37;1.27;;;11.80;36.20;;;;;;4992439;28;20177;-72
2023/11/14 01:17:17;;;;;;;4.20;1.70;;;11.80;36.70;;;;;;4992608;28;20411;-71
2023/11/14 01:19:44;;;;;;;2.43;1.10;;;11.80;36.60;;;;;;4992706;28;20177;-72
2023/11/14 01:22:10;;;;;;;1.90;1.10;;;11.90;36.30;;;;;;4995571;28;20435;-72
2023/11/14 01:24:35;;;;;;;3.27;1.47;;;11.90;35.10;;;;;;4995463;28;20408;-72
2023/11/14 01:27:02;;;;;;;2.80;1.30;;;11.90;35.40;;;;;;4995229;28;20206;-71
2023/11/14 01:29:28;;;;;;;3.00;1.47;;;12.00;35.20;;;;;;4995228;28;20171;-72
2023/11/14 01:31:53;;;;;;;5.00;1.73;;;11.90;37.20;;;;;;4995243;28;20509;-71
2023/11/14 01:34:20;;;;;;;3.93;1.60;;;11.90;37.90;;;;;;4995361;28;20298;-72
2023/11/14 01:36:45;;;;;;;4.93;1.57;;;11.90;37.00;;;;;;4995478;28;20441;-71
2023/11/14 01:39:11;;;;;;;5.63;1.93;;;11.90;37.20;;;;;;4995105;28;20664;-72
2023/11/14 01:41:36;;;;;;;3.50;1.90;;;12.00;35.70;;;;;;4994966;28;20606;-71
2023/11/14 01:44:02;;;;;;;14.83;1.40;;;12.00;35.20;;;;;;4994992;28;20591;-72
2023/11/14 01:46:30;;;;;;;2.10;1.23;;;12.00;35.00;;;;;;4995369;28;20214;-72
2023/11/14 01:48:57;;;;;;;3.90;1.57;;;11.90;36.20;;;;;;4995047;28;20417;-71
2023/11/14 01:51:24;;;;;;;9.57;2.03;;;11.90;34.20;;;;;;4995392;28;20988;-72
2023/11/14 01:53:51;;;;;;;3.50;1.33;;;11.80;34.60;;;;;;4995550;28;20439;-71
2023/11/14 01:56:19;;;;;;;4.03;2.10;;;11.70;32.40;;;;;;4995628;28;20419;-72
2023/11/14 01:58:45;;;;;;;4.90;1.37;;;11.70;33.90;;;;;;4995452;28;20422;-71
2023/11/14 02:01:13;;;;;;;3.90;2.00;;;11.70;34.20;;;;;;4995602;28;20438;-72
2023/11/14 02:03:39;;;;;;;2.57;1.10;;;11.70;32.50;;;;;;4995246;28;20439;-72
2023/11/14 02:06:06;;;;;;;3.67;1.90;;;11.70;32.60;;;;;;4995982;28;20481;-72
2023/11/14 02:08:31;;;;;;;4.50;1.97;;;11.70;32.50;;;;;;4995288;28;20415;-72
2023/11/14 02:10:58;;;;;;;4.47;1.40;;;11.80;32.50;;;;;;4995723;28;20538;-73
2023/11/14 02:13:23;;;;;;;3.83;1.50;;;11.80;31.50;;;;;;4995073;28;20199;-72
2023/11/14 02:15:49;;;;;;;5.80;1.27;;;11.80;32.50;;;;;;4995298;28;20411;-73
2023/11/14 02:18:19;;;;;;;3.03;1.70;;;11.80;31.50;;;;;;4995281;28;20204;-72
2023/11/14 02:20:45;;;;;;;3.33;1.50;;;11.70;31.10;;;;;;4995412;28;20174;-71
2023/11/14 02:23:13;;;;;;;3.43;1.00;;;11.70;30.80;;;;;;4994665;28;20444;-72
2023/11/14 02:25:39;;;;;;;4.43;1.43;;;11.70;31.50;;;;;;4994801;28;20970;-72
2023/11/14 02:28:05;;;;;;;2.53;1.23;;;11.60;32.40;;;;;;4994979;28;20422;-72
2023/11/14 02:30:31;;;;;;;4.43;1.73;;;11.60;31.60;;;;;;4995032;28;20434;-72
2023/11/14 02:32:56;;;;;;;2.47;1.40;;;11.60;31.30;;;;;;4993459;28;20211;-71
2023/11/14 02:35:22;;;;;;;2.50;1.17;;;11.60;32.30;;;;;;4994739;28;20183;-71
2023/11/14 02:37:47;;;;;;;2.87;1.30;;;11.50;33.40;;;;;;4994535;28;20176;-72
2023/11/14 02:40:13;;;;;;;6.87;2.00;;;11.50;32.30;;;;;;4994495;28;20174;-73
2023/11/14 02:42:43;;;;;;;3.30;2.30;;;11.50;33.70;;;;;;4994236;28;20208;-72
2023/11/14 02:45:09;;;;;;;3.83;1.47;;;11.50;33.30;;;;;;4994364;28;20419;-71
2023/11/14 02:47:35;;;;;;;4.30;1.37;;;11.50;33.80;;;;;;4994394;28;20454;-73
2023/11/14 02:50:50;;;;;;;3.10;1.63;;;11.50;35.90;;;;;;4994709;28;20924;-72
2023/11/14 02:53:17;;;;;;;2.80;1.60;;;11.50;35.10;;;;;;4960374;28;20982;-73
2023/11/14 02:55:44;;;;;;;2.50;1.50;;;11.50;35.00;;;;;;4994377;28;20466;-72
2023/11/14 02:58:11;;;;;;;5.57;1.90;;;11.50;32.30;;;;;;4994064;28;20423;-72
2023/11/14 03:00:38;;;;;;;5.00;1.90;;;11.30;35.60;;;;;;4994101;28;20795;-72
2023/11/14 03:03:03;;;;;;;2.90;1.60;;;11.20;35.20;;;;;;4993994;28;20443;-72
2023/11/14 03:05:29;;;;;;;5.60;1.97;;;11.20;37.60;;;;;;4994046;28;20531;-72
2023/11/14 03:07:54;;;;;;;5.60;2.57;;;11.10;37.50;;;;;;4994090;28;20599;-72
2023/11/14 03:10:20;;;;;;;4.60;1.83;;;11.10;39.30;;;;;;4994019;28;20669;-72
2023/11/14 03:12:46;;;;;;;4.90;2.07;;;11.20;37.80;;;;;;4993833;28;20199;-72
2023/11/14 03:15:11;;;;;;;3.40;1.77;;;11.20;39.00;;;;;;4993854;28;20175;-72
2023/11/14 03:17:37;;;;;;;3.40;1.57;;;11.20;37.90;;;;;;4976623;28;20219;-73
2023/11/14 03:20:04;;;;;;;6.50;2.10;;;11.20;38.10;;;;;;4993644;28;20172;-71
2023/11/14 03:22:29;;;;;;;4.10;2.07;;;11.20;39.80;;;;;;4993191;28;20211;-72
2023/11/14 03:24:55;;;;;;;4.93;1.63;;;11.20;37.00;;;;;;4993404;28;20410;-72
2023/11/14 03:27:22;;;;;;;4.50;1.30;;;11.30;38.00;;;;;;4993594;28;20578;-70
2023/11/14 03:29:48;;;;;;;5.57;1.40;;;11.40;36.80;;;;;;4993948;28;20452;-72
2023/11/14 03:32:13;;;;;;;4.80;1.73;;;11.40;37.40;;;;;;5021720;23;20463;-71
2023/11/14 03:34:39;;;;;;;3.00;1.30;;;11.40;37.00;;;;;;5032348;28;20194;-70
2023/11/14 03:37:04;;;;;;;4.43;1.77;;;11.40;37.90;;;;;;5032232;28;20288;-71
2023/11/14 03:39:33;;;;;;;3.20;2.13;;;11.30;37.30;;;;;;5032179;28;20232;-71
2023/11/14 03:41:58;;;;;;;5.77;1.93;;;11.40;37.40;;;;;;5031330;28;20183;-70
2023/11/14 03:44:24;;;;;;;4.33;1.77;;;11.40;37.70;;;;;;5012077;28;20411;-71
2023/11/14 03:46:50;;;;;;;2.70;1.70;;;11.40;37.40;;;;;;5012292;28;20554;-72
2023/11/14 03:49:15;;;;;;;7.57;2.23;;;11.50;36.40;;;;;;5011122;28;20631;-71
2023/11/14 03:51:41;;;;;;;3.33;1.67;;;11.40;36.80;;;;;;5012268;28;20180;-71
2023/11/14 03:54:06;;;;;;;4.00;2.20;;;11.50;37.20;;;;;;4994342;28;20224;-71
2023/11/14 03:56:32;;;;;;;5.03;1.77;;;11.50;36.80;;;;;;5011253;28;20176;-71
2023/11/14 03:58:57;;;;;;;5.30;2.17;;;11.40;36.90;;;;;;4994429;28;20186;-71
2023/11/14 04:01:23;;;;;;;3.90;2.10;;;11.40;37.00;;;;;;4994555;28;20185;-71
2023/11/14 04:03:49;;;;;;;9.23;2.60;;;11.40;36.60;;;;;;5011866;28;20686;-71
2023/11/14 04:06:14;;;;;;;8.83;1.83;;;11.50;35.20;;;;;;5012162;28;20246;-71
2023/11/14 04:08:40;;;;;;;2.30;1.67;;;11.40;35.80;;;;;;5012205;28;20204;-71
2023/11/14 04:11:09;;;;;;;6.03;1.90;;;11.40;37.60;;;;;;5012029;28;20620;-71
2023/11/14 04:13:38;;;;;;;16.03;1.83;;;11.30;37.30;;;;;;5011666;28;20217;-71
2023/11/14 04:16:04;;;;;;;2.57;1.73;;;11.20;37.80;;;;;;5011870;28;20454;-71
2023/11/14 04:18:30;;;;;;;2.57;1.17;;;11.20;37.80;;;;;;5011921;28;20415;-71
2023/11/14 04:20:55;;;;;;;3.00;1.60;;;11.10;39.40;;;;;;5011874;28;20984;-71
2023/11/14 04:23:21;;;;;;;3.73;1.63;;;11.00;40.90;;;;;;5011624;28;20200;-71
2023/11/14 04:25:47;;;;;;;3.07;1.30;;;11.00;42.20;;;;;;5011915;28;20199;-71
2023/11/14 04:28:13;;;;;;;3.00;1.00;;;11.00;41.70;;;;;;5011836;28;20175;-71
2023/11/14 04:30:38;;;;;;;8.97;1.43;;;11.00;42.20;;;;;;5011747;28;20419;-71
2023/11/14 04:33:04;;;;;;;1.97;0.93;;;10.90;40.40;;;;;;5011502;28;20270;-71
2023/11/14 04:35:29;;;;;;;3.77;1.13;;;10.90;40.40;;;;;;5011928;28;20180;-71
2023/11/14 04:37:56;;;;;;;3.50;0.97;;;10.90;40.80;;;;;;5012163;28;20243;-71
2023/11/14 04:40:23;;;;;;;3.10;1.20;;;10.80;40.70;;;;;;5010555;28;20185;-71
2023/11/14 04:42:48;;;;;;;4.00;1.87;;;10.80;40.70;;;;;;5011345;28;20546;-71
2023/11/14 04:45:14;;;;;;;3.70;1.30;;;10.80;41.70;;;;;;5010414;28;20453;-71
2023/11/14 04:47:39;;;;;;;4.67;1.33;;;10.80;41.50;;;;;;5011793;28;20208;-71
2023/11/14 04:50:06;;;;;;;3.50;1.97;;;10.80;40.10;;;;;;4994075;28;20263;-70
2023/11/14 04:52:32;;;;;;;3.87;1.23;;;10.70;39.70;;;;;;5011271;28;20199;-71
2023/11/14 04:54:58;;;;;;;3.27;1.10;;;10.70;39.70;;;;;;5012017;28;20953;-71
2023/11/14 04:57:24;;;;;;;5.27;1.43;;;10.70;40.30;;;;;;5015441;28;20451;-71
2023/11/14 04:59:50;;;;;;;3.87;0.83;;;10.60;39.80;;;;;;5014146;28;20430;-71
2023/11/14 05:02:16;;;;;;;3.93;1.50;;;10.60;40.40;;;;;;5015097;28;20554;-71
2023/11/14 05:04:42;;;;;;;3.20;1.40;;;10.60;40.10;;;;;;5015381;28;20179;-71
2023/11/14 05:07:08;;;;;;;1.67;0.83;;;10.60;40.80;;;;;;5015059;28;20459;-71
2023/11/14 05:09:35;;;;;;;3.20;0.90;;;10.60;41.60;;;;;;5015135;28;20904;-71
2023/11/14 05:12:00;;;;;;;2.40;0.67;;;10.60;40.10;;;;;;5014838;28;20899;-71
2023/11/14 05:14:26;;;;;;;2.50;0.97;;;10.60;41.00;;;;;;5015145;28;20450;-71
2023/11/14 05:16:56;;;;;;;1.67;0.77;;;10.60;39.80;;;;;;5015115;28;20552;-71
2023/11/14 05:19:23;;;;;;;2.20;1.10;;;10.60;40.60;;;;;;5015029;28;20504;-71
2023/11/14 05:21:49;;;;;;;3.43;1.30;;;10.70;39.00;;;;;;5014948;28;20415;-70
2023/11/14 05:24:14;;;;;;;2.00;1.00;;;10.70;37.90;;;;;;5014565;28;20568;-71
2023/11/14 05:26:40;;;;;;;1.87;0.80;;;10.70;38.50;;;;;;5014896;28;20456;-71
2023/11/14 05:29:06;;;;;;;1.70;0.77;;;10.70;37.60;;;;;;5015024;28;20230;-71
2023/11/14 05:31:33;;;;;;;2.93;1.10;;;10.70;36.80;;;;;;4997247;28;20180;-71
2023/11/14 05:33:59;;;;;;;1.93;0.80;;;10.60;36.60;;;;;;5014347;28;20457;-71
2023/11/14 05:36:25;;;;;;;1.63;0.67;;;10.60;36.70;;;;;;5014668;28;20423;-71
2023/11/14 05:38:50;;;;;;;1.90;0.87;;;10.60;35.90;;;;;;5014710;28;20182;-71
2023/11/14 05:41:16;;;;;;;2.20;1.00;;;10.60;35.50;;;;;;5014639;28;20233;-71
2023/11/14 05:43:42;;;;;;;1.60;0.77;;;10.70;33.60;;;;;;5014576;28;20196;-71
2023/11/14 05:46:08;;;;;;;2.03;0.93;;;10.70;33.30;;;;;;5014502;28;20206;-70
2023/11/14 05:48:34;;;;;;;2.60;0.83;;;10.70;35.10;;;;;;5014647;28;20411;-71
2023/11/14 05:51:00;;;;;;;3.00;1.10;;;10.60;33.80;;;;;;5014533;28;20221;-70
2023/11/14 05:53:26;;;;;;;2.57;1.20;;;10.60;33.80;;;;;;5014180;28;20536;-71
2023/11/14 05:55:51;;;;;;;6.80;1.97;;;10.60;33.60;;;;;;5014376;28;20558;-71
2023/11/14 05:58:17;;;;;;;1.87;1.00;;;10.60;31.50;;;;;;5014324;28;20178;-71
2023/11/14 06:00:43;;;;;;;4.20;1.53;;;10.60;30.10;;;;;;5014255;28;20653;-71
2023/11/14 06:03:08;;;;;;;2.17;0.90;;;10.50;29.90;;;;;;5013896;28;20198;-71
2023/11/14 06:05:34;;;;;;;3.30;1.10;;;10.50;29.20;;;;;;5014233;28;20197;-71
2023/11/14 06:08:00;;;;;;;2.33;1.30;;;10.50;29.40;;;;;;5012899;28;20593;-71
2023/11/14 06:10:25;;;;;;;2.83;1.30;;;10.40;29.20;;;;;;5014262;28;20555;-71
2023/11/14 06:12:51;;;;;;;3.37;1.03;;;10.40;29.50;;;;;;5013982;28;20442;-71
2023/11/14 06:15:17;;;;;;;8.70;1.57;;;10.30;29.10;;;;;;4996496;28;20172;-71
2023/11/14 06:17:44;;;;;;;2.27;1.13;;;10.30;29.80;;;;;;5014077;28;20492;-71
2023/11/14 06:20:11;;;;;;;2.40;1.00;;;10.30;29.80;;;;;;5014014;28;20775;-71
2023/11/14 06:22:37;;;;;;;2.80;1.80;;;10.20;29.80;;;;;;5014629;28;20811;-72
2023/11/14 06:25:03;;;;;;;6.73;1.97;;;10.20;34.80;;;;;;5014033;28;20418;-71
2023/11/14 06:27:30;;;;;;;3.30;1.70;;;10.10;36.30;;;;;;5013891;28;20204;-71
2023/11/14 06:29:56;;;;;;;2.90;1.37;;;10.10;37.90;;;;;;5014521;28;20419;-71
2023/11/14 06:32:22;;;;;;;4.87;1.40;;;10.00;39.20;;;;;;4995955;28;20450;-72
2023/11/14 06:34:48;;;;;;;2.97;1.37;;;10.00;39.50;;;;;;4996179;28;20435;-71
2023/11/14 06:37:13;;;;;;;2.33;1.33;;;10.00;41.30;;;;;;5013540;28;20411;-71
2023/11/14 06:39:40;;;;;;;2.70;1.30;;;10.00;45.10;;;;;;5013415;28;20208;-71
2023/11/14 06:42:07;;;;;;;4.17;1.63;;;10.00;46.60;;;;;;5012126;28;20182;-71
2023/11/14 06:44:35;;;;;;;2.70;1.30;;;10.00;46.60;;;;;;5013807;28;21060;-72
2023/11/14 06:47:02;;;;;;;3.53;1.57;;;10.00;47.70;;;;;;5013574;28;20462;-71
2023/11/14 06:49:28;;;;;;;3.10;1.90;;;10.00;47.30;;;;;;5013646;28;20415;-73
2023/11/14 06:51:53;;;;;;;7.67;1.70;;;10.10;47.40;;;;;;5013329;28;20748;-72
2023/11/14 06:54:19;;;;;;;3.03;1.37;;;10.10;47.00;;;;;;5012889;28;20211;-70
2023/11/14 06:56:44;;;;;;;4.73;1.60;;;10.10;44.30;;;;;;5013089;28;20248;-70
2023/11/14 06:59:10;;;;;;;6.33;1.17;;;10.10;43.40;;;;;;5011857;28;20180;-70
2023/11/14 07:01:36;;;;;;;4.63;1.67;;;10.10;41.40;;;;;;5013084;28;20187;-70
2023/11/14 07:04:02;;;;;;;3.60;1.30;;;10.20;40.60;;;;;;5012825;28;20564;-70
2023/11/14 07:06:28;;;;;;;2.63;1.03;;;10.20;40.60;;;;;;5012802;28;20581;-70
2023/11/14 07:08:55;;;;;;;2.40;1.27;;;10.30;39.00;;;;;;5012986;28;20422;-70
2023/11/14 07:11:21;;;;;;;3.53;1.47;;;10.30;37.40;;;;;;5013085;28;20416;-72
2023/11/14 07:13:48;;;;;;;2.50;1.10;;;10.30;37.10;;;;;;5012549;28;20517;-72
2023/11/14 07:16:13;;;;;;;11.80;2.07;;;10.30;35.80;;;;;;5013022;28;20417;-72
2023/11/14 07:18:39;;;;;;;5.50;1.03;;;10.40;35.20;;;;;;5012381;28;20419;-73
2023/11/14 07:21:05;;;;;;;3.13;1.40;;;10.40;34.50;;;;;;5012784;28;20211;-70
2023/11/14 07:23:31;;;;;;;3.20;1.47;;;10.50;33.30;;;;;;5012484;28;20859;-71
2023/11/14 07:25:56;;;;;;;2.60;1.47;;;10.50;32.90;;;;;;5012565;28;20219;-71
2023/11/14 07:28:22;;;;;;;3.93;1.20;;;10.60;31.50;;;;;;5013149;28;20462;-71
2023/11/14 07:30:48;;;;;;;3.43;1.37;;;10.60;31.50;;;;;;4994942;28;20180;-71
2023/11/14 07:33:15;;;;;;;2.47;0.70;;;10.50;28.70;;;;;;5012278;28;20214;-71
2023/11/14 07:35:40;;;;;;;3.90;1.77;;;10.60;28.30;;;;;;5012438;28;20253;-71
2023/11/14 07:38:06;;;;;;;4.67;1.33;;;10.60;28.30;;;;;;5012505;28;20411;-71
2023/11/14 07:40:33;;;;;;;3.00;1.27;;;10.70;27.20;;;;;;5012544;28;20246;-71
2023/11/14 07:43:02;;;;;;;2.00;0.83;;;10.80;26.40;;;;;;5012175;28;20526;-71
2023/11/14 07:45:32;;;;;;;2.27;1.03;;;10.90;25.40;;;;;;4995506;28;20993;-71
2023/11/14 07:47:59;;;;;;;3.30;0.80;;;11.00;23.30;;;;;;5012532;28;20420;-71
2023/11/14 07:50:24;;;;;;;1.80;0.60;;;11.00;23.10;;;;;;5012193;28;20509;-71
2023/11/14 07:52:50;;;;;;;1.80;0.90;;;11.10;23.30;;;;;;5012069;28;20512;-71
2023/11/14 07:55:16;;;;;;;4.50;1.20;;;11.10;23.90;;;;;;5012379;28;20983;-71
2023/11/14 07:57:43;;;;;;;2.57;0.97;;;11.10;23.30;;;;;;5012187;28;20502;-71
2023/11/14 08:00:12;;;;;;;7.27;1.27;;;11.20;23.40;;;;;;4994619;28;20424;-71
2023/11/14 08:02:38;;;;;;;1.83;0.97;;;11.40;23.60;;;;;;5012021;28;20483;-71
2023/11/14 08:05:04;;;;;;;2.00;0.90;;;11.40;22.90;;;;;;5012970;28;20431;-71
2023/11/14 08:07:30;;;;;;;3.20;1.00;;;11.30;23.50;;;;;;4994670;28;20474;-71
2023/11/14 08:09:55;;;;;;;2.47;1.13;;;11.30;22.40;;;;;;5012301;28;20415;-72
2023/11/14 08:12:21;;;;;;;2.57;0.73;;;11.20;21.90;;;;;;5011641;28;20283;-71
2023/11/14 08:14:47;;;;;;;3.00;1.40;;;11.20;22.90;;;;;;5012116;28;20197;-72
2023/11/14 08:17:13;;;;;;;2.57;0.97;;;11.20;23.20;;;;;;4994867;28;20547;-71
2023/11/14 08:19:39;;;;;;;4.23;0.90;;;11.20;22.00;;;;;;4994276;28;20423;-71
2023/11/14 08:22:06;;;;;;;1.83;0.70;;;11.20;20.00;;;;;;5011575;28;20187;-71
2023/11/14 08:24:34;;;;;;;2.87;0.90;;;11.30;20.00;;;;;;5011738;28;20219;-71
2023/11/14 08:27:00;;;;;;;2.33;0.80;;;11.30;18.30;;;;;;4994000;28;20468;-71
2023/11/14 08:29:25;;;;;;;2.13;1.20;;;11.40;17.30;;;;;;5010792;28;20493;-71
2023/11/14 08:31:51;;;;;;;3.30;1.23;;;11.50;13.70;;;;;;5015598;28;20204;-72
2023/11/14 08:34:16;;;;;;;3.90;0.93;;;11.60;12.90;;;;;;5015426;28;20222;-71
2023/11/14 08:36:42;;;;;;;2.70;1.03;;;11.60;14.50;;;;;;5015677;28;20262;-71
2023/11/14 08:39:13;;;;;;;1.70;0.70;;;11.60;13.00;;;;;;5015636;28;20180;-71
2023/11/14 08:41:39;;;;;;;2.20;0.90;;;11.70;8.40;;;;;;5015725;28;20421;-71
2023/11/14 08:44:05;;;;;;;3.53;1.33;;;11.70;8.70;;;;;;5015449;28;20976;-71
2023/11/14 08:46:31;;;;;;;2.00;0.70;;;11.70;9.20;;;;;;4997774;28;20465;-71
2023/11/14 08:48:56;;;;;;;2.40;1.13;;;11.80;8.80;;;;;;5015555;28;20205;-71
2023/11/14 08:51:22;;;;;;;2.63;1.50;;;11.80;7.50;;;;;;5015538;28;20188;-71
2023/11/14 08:53:48;;;;;;;4.73;1.27;;;11.80;3.40;;;;;;5014267;28;20671;-71
2023/11/14 08:56:13;;;;;;;3.40;1.00;;;11.70;3.60;;;;;;5015406;28;20718;-71
2023/11/14 08:58:39;;;;;;;2.70;1.20;;;11.60;4.30;;;;;;5015303;28;20658;-71
2023/11/14 09:01:05;;;;;;;5.87;1.60;;;11.60;3.80;;;;;;5015204;28;20183;-71
2023/11/14 09:03:30;;;;;;;2.57;1.10;;;11.60;3.40;;;;;;5014826;28;20197;-71
2023/11/14 09:05:56;;;;;;;3.90;1.20;;;11.60;2.10;;;;;;5014422;28;20204;-71
2023/11/14 09:08:22;;;;;;;9.80;1.30;;;11.50;3.60;;;;;;5015241;28;20180;-71
2023/11/14 09:10:48;;;;;;;3.93;1.23;;;11.60;2.30;;;;;;5015310;28;20793;-72
2023/11/14 09:13:15;;;;;;;8.43;1.50;;;11.90;3.20;;;;;;5014959;28;20191;-72
2023/11/14 09:15:41;;;;;;;2.10;1.20;;;12.10;1.90;;;;;;5015239;28;20168;-72
2023/11/14 09:18:07;;;;;;;4.33;1.90;;;12.10;1.00;;;;;;4997482;28;20425;-70
2023/11/14 09:20:33;;;;;;;4.60;1.97;;;12.10;1.00;;;;;;5015054;28;20446;-70
2023/11/14 09:22:59;;;;;;;4.13;1.47;;;12.20;1.00;;;;;;5014641;28;20434;-70
2023/11/14 09:25:25;;;;;;;3.37;1.50;;;12.20;1.00;;;;;;5015082;28;20912;-70
2023/11/14 09:27:50;;;;;;;2.83;1.23;;;12.20;1.00;;;;;;5014924;28;20422;-70
2023/11/14 09:30:16;;;;;;;4.07;1.67;;;12.30;1.00;;;;;;5014677;28;20667;-70
2023/11/14 09:32:42;;;;;;;3.93;1.63;;;12.30;1.00;;;;;;5040444;23;20234;-70
2023/11/14 09:35:10;;;;;;;2.60;1.50;;;12.30;1.00;;;;;;4978320;28;20270;-71
2023/11/14 09:37:36;;;;;;;7.03;1.83;;;12.40;1.00;;;;;;4995936;28;20177;-71
2023/11/14 09:40:06;;;;;;;5.70;2.00;;;12.40;1.00;;;;;;4995482;28;20888;-71
2023/11/14 09:42:34;;;;;;;3.20;1.33;;;12.60;1.00;;;;;;4994748;28;20935;-70
2023/11/14 09:44:59;;;;;;;4.43;1.47;;;12.60;1.00;;;;;;4995647;28;20765;-71
2023/11/14 09:47:26;;;;;;;3.80;1.30;;;12.60;1.00;;;;;;4995174;28;20457;-70
2023/11/14 09:49:52;;;;;;;2.40;1.27;;;12.70;1.00;;;;;;4995299;28;20179;-70
2023/11/14 09:52:18;;;;;;;2.33;1.33;;;12.60;1.00;;;;;;4995005;28;20427;-70
2023/11/14 09:54:44;;;;;;;2.23;1.20;;;12.60;1.00;;;;;;4995212;28;20173;-71
2023/11/14 09:57:11;;;;;;;2.07;1.10;;;12.40;1.00;;;;;;4995248;28;20416;-71
2023/11/14 09:59:41;;;;;;;3.83;1.27;;;12.30;1.90;;;;;;4995156;28;20657;-71
2023/11/14 10:02:07;;;;;;;3.00;1.67;;;12.20;2.20;;;;;;4994927;28;20416;-71
2023/11/14 10:04:32;;;;;;;4.33;0.87;;;12.20;2.20;;;;;;4977552;28;20439;-71
2023/11/14 10:06:58;;;;;;;2.13;1.00;;;12.10;1.80;;;;;;4977562;28;20463;-71
2023/11/14 10:09:25;;;;;;;2.57;1.30;;;12.20;1.90;;;;;;4995047;28;20201;-71
2023/11/14 10:11:52;;;;;;;3.43;1.00;;;12.30;2.30;;;;;;4994917;28;20184;-70
2023/11/14 10:14:20;;;;;;;1.97;0.90;;;12.30;1.50;;;;;;4994861;28;20438;-71
2023/11/14 10:16:58;;;;;;;3.20;1.10;;;12.30;1.20;;;;;;4994897;28;20429;-70
2023/11/14 10:19:24;;;;;;;3.90;1.30;;;12.30;1.30;;;;;;4994810;28;20446;-71
2023/11/14 10:21:50;;;;;;;2.20;1.00;;;12.40;1.00;;;;;;4994629;28;20857;-71
2023/11/14 10:24:17;;;;;;;1.83;0.93;;;12.40;1.00;;;;;;4994223;28;20200;-71
2023/11/14 10:26:53;;;;;;;4.00;1.63;;;12.30;1.00;;;;;;4994619;28;20647;-71
2023/11/14 10:29:23;;;;;;;5.40;1.20;;;12.30;1.00;;;;;;4994796;28;20415;-70
2023/11/14 10:31:50;;;;;;;3.80;1.60;;;12.30;1.00;;;;;;4995063;28;20422;-70
2023/11/14 10:34:28;;;;;;;4.20;1.30;;;12.50;1.00;;;;;;4995293;28;20987;-70
2023/11/14 10:36:57;;;;;;;3.10;1.50;;;12.50;1.00;;;;;;4994564;28;20430;-70
2023/11/14 10:39:24;;;;;;;3.53;1.50;;;12.50;1.00;;;;;;4994788;28;20417;-70
2023/11/14 10:41:50;;;;;;;3.23;1.27;;;12.50;1.00;;;;;;4994681;28;20411;-70
2023/11/14 10:44:16;;;;;;;2.83;1.20;;;12.50;1.00;;;;;;4977143;28;20455;-71
2023/11/14 10:46:50;;;;;;;3.73;1.20;;;12.50;1.00;;;;;;4976785;28;20462;-71
2023/11/14 10:49:16;;;;;;;2.80;1.00;;;12.50;1.00;;;;;;4994702;28;21069;-71
2023/11/14 10:51:43;;;;;;;2.47;1.00;;;12.60;1.00;;;;;;4994374;28;20420;-71
2023/11/14 10:54:09;;;;;;;7.87;2.23;;;12.60;1.00;;;;;;4993874;28;20446;-73
2023/11/14 10:56:36;;;;;;;2.33;1.07;;;12.60;1.00;;;;;;4996478;28;20937;-71
2023/11/14 10:59:10;;;;;;;2.97;1.50;;;12.60;1.00;;;;;;4997279;28;20482;-71
2023/11/14 11:01:46;;;;;;;5.40;1.50;;;12.60;1.00;;;;;;4994727;28;20425;-71
2023/11/14 11:04:16;;;;;;;6.03;1.20;;;12.60;1.00;;;;;;4994141;28;20998;-71
2023/11/14 11:06:44;;;;;;;4.03;1.43;;;12.60;1.00;;;;;;4994210;28;20462;-71
2023/11/14 11:09:10;;;;;;;2.83;1.00;;;12.60;1.00;;;;;;4994194;28;20506;-71
2023/11/14 11:11:41;;;;;;;8.03;1.50;;;12.60;1.00;;;;;;4993834;28;20494;-71
2023/11/14 11:14:10;;;;;;;3.00;1.43;;;12.70;1.00;;;;;;4993408;28;20451;-71
2023/11/14 11:16:41;;;;;;;2.27;1.20;;;12.70;1.00;;;;;;4976147;28;20949;-71
2023/11/14 11:19:07;;;;;;;3.67;1.33;;;12.70;1.00;;;;;;4993555;28;20937;-71
2023/11/14 11:21:34;;;;;;;10.10;2.40;;;12.80;1.00;;;;;;4993381;28;20794;-71
2023/11/14 11:24:09;;;;;;;3.53;1.50;;;12.70;1.00;;;;;;4993203;28;20522;-71
2023/11/14 11:27:12;;;;;;;2.43;1.40;;;12.70;1.00;;;;;;4993346;28;20458;-71
2023/11/14 11:30:04;;;;;;;7.40;1.67;;;12.60;1.00;;;;;;4993427;28;20997;-71
2023/11/14 11:32:35;;;;;;;2.50;1.20;;;12.60;1.00;;;;;;4992964;28;20893;-71
2023/11/14 11:35:16;;;;;;;4.37;1.10;;;12.70;1.00;;;;;;4993381;28;20423;-71
2023/11/14 11:37:45;;;;;;;3.90;1.83;;;12.70;1.00;;;;;;4976033;28;20786;-71
2023/11/14 11:40:13;;;;;;;3.33;1.30;;;12.80;1.00;;;;;;4993235;28;20435;-70
2023/11/14 11:42:40;;;;;;;4.17;1.50;;;12.90;1.00;;;;;;4992827;28;20430;-71
2023/11/14 11:45:26;;;;;;;5.40;2.07;;;12.90;1.00;;;;;;4993069;28;20829;-71
2023/11/14 11:47:52;;;;;;;4.00;1.37;;;13.00;1.00;;;;;;4992650;28;20874;-70
2023/11/14 11:50:47;;;;;;;2.57;1.13;;;13.00;1.00;;;;;;4993433;28;20482;-70
2023/11/14 11:53:14;;;;;;;3.77;1.80;;;13.10;1.00;;;;;;4976249;28;20756;-71
2023/11/14 11:55:41;;;;;;;4.93;1.40;;;13.10;1.00;;;;;;4993070;28;20451;-71
2023/11/14 11:58:08;;;;;;;4.63;1.53;;;12.90;1.00;;;;;;4975250;28;20503;-70
2023/11/14 12:00:35;;;;;;;3.60;1.73;;;12.90;1.00;;;;;;4992819;28;20412;-70
2023/11/14 12:03:05;;;;;;;4.00;1.63;;;12.80;1.00;;;;;;4992640;28;20494;-71
2023/11/14 12:05:32;;;;;;;4.13;1.63;;;12.70;1.00;;;;;;4975246;28;20506;-71
2023/11/14 12:07:59;;;;;;;7.80;2.07;;;12.70;1.00;;;;;;4975257;28;20434;-71
2023/11/14 12:10:26;;;;;;;2.13;1.17;;;12.60;1.00;;;;;;4992691;28;20407;-70
2023/11/14 12:12:53;;;;;;;3.30;2.00;;;12.60;1.00;;;;;;4992303;28;20455;-71
2023/11/14 12:15:20;;;;;;;2.53;1.40;;;12.60;1.00;;;;;;4992692;28;20897;-70
2023/11/14 12:17:54;;;;;;;4.63;2.03;;;12.60;1.00;;;;;;4992541;28;20408;-70
2023/11/14 12:20:21;;;;;;;6.97;1.60;;;12.60;1.00;;;;;;4992563;28;20403;-70
2023/11/14 12:22:49;;;;;;;2.30;1.20;;;12.70;1.00;;;;;;4992272;28;20434;-70
2023/11/14 12:25:25;;;;;;;4.07;1.50;;;12.70;1.00;;;;;;4993255;28;20411;-70
2023/11/14 12:27:59;;;;;;;6.30;1.63;;;12.90;1.00;;;;;;4992566;28;20497;-71
2023/11/14 12:30:26;;;;;;;4.10;2.67;;;12.90;1.00;;;;;;4992519;28;20407;-71
2023/11/14 12:33:10;;;;;;;5.00;2.50;;;12.90;1.00;;;;;;4992259;28;20449;-71
2023/11/14 12:35:55;;;;;;;9.90;2.53;;;13.10;1.00;;;;;;4975281;28;20424;-70
2023/11/14 12:38:35;;;;;;;4.30;1.90;;;13.00;1.00;;;;;;4992565;28;20511;-70
2023/11/14 12:41:24;;;;;;;3.50;1.90;;;12.90;1.00;;;;;;4992376;28;20412;-70
2023/11/14 12:43:51;;;;;;;4.47;2.03;;;12.90;1.00;;;;;;4992348;28;20432;-71
2023/11/14 12:46:23;;;;;;;4.80;1.83;;;12.90;1.00;;;;;;4992311;28;21067;-71
2023/11/14 12:49:15;;;;;;;3.37;1.90;;;12.90;1.00;;;;;;4992484;28;20921;-71
2023/11/14 12:51:48;;;;;;;3.47;1.57;;;12.90;1.00;;;;;;4992812;28;20411;-70